Time;durP1;ratioP1;P1;durP2;ratioP2;P2;SDS_P1;SDS_P2;PMS_P1;PMS_P2;Temp;Humidity;BMP_temperature;BMP_pressure;BME280_temperature;BME280_humidity;BME280_pressure;Samples;Min_cycle;Max_cycle;Signal;HPM_P1;HPM_P2
2022/01/28 00:01:50;;;;;;;17.92;3.03;;;5.50;99.90;;;;;;6245456;22;20051;-87
2022/01/28 00:04:17;;;;;;;14.55;1.73;;;5.50;99.90;;;;;;6219749;22;20043;-87
2022/01/28 00:06:43;;;;;;;18.17;1.67;;;5.40;99.90;;;;;;6272329;22;20023;-85
2022/01/28 00:09:10;;;;;;;13.65;2.15;;;5.30;99.90;;;;;;6244575;22;20015;-86
2022/01/28 00:11:35;;;;;;;13.13;1.38;;;5.20;99.90;;;;;;6244496;22;20016;-87
2022/01/28 00:14:23;;;;;;;13.90;2.00;;;5.10;99.90;;;;;;6245247;22;20047;-87
2022/01/28 00:38:44;;;;;;;23.70;3.55;;;5.10;99.90;;;;;;6244895;22;20076;-88
2022/01/28 00:41:10;;;;;;;28.27;3.67;;;5.10;99.90;;;;;;6219315;22;20042;-87
2022/01/28 00:43:36;;;;;;;24.60;3.72;;;5.10;99.90;;;;;;6220169;22;20012;-89
2022/01/28 01:06:27;;;;;;;19.85;3.20;;;5.10;99.90;;;;;;6297307;22;20021;-85
2022/01/28 01:08:53;;;;;;;21.80;3.78;;;5.00;99.90;;;;;;6374324;22;20017;-87
2022/01/28 01:11:21;;;;;;;21.43;3.40;;;5.00;99.90;;;;;;6347825;22;20100;-86
2022/01/28 01:13:49;;;;;;;22.83;3.95;;;4.90;99.90;;;;;;6373655;22;20017;-86
2022/01/28 01:16:19;;;;;;;20.13;3.22;;;4.90;99.90;;;;;;6347690;22;20045;-86
2022/01/28 01:21:25;;;;;;;22.90;3.40;;;4.90;99.90;;;;;;6322564;22;20452;-85
2022/01/28 01:23:54;;;;;;;24.90;3.20;;;4.80;99.90;;;;;;6189117;23;20031;-86
2022/01/28 01:26:30;;;;;;;29.98;3.78;;;4.80;99.90;;;;;;6189251;23;20117;-86
2022/01/28 01:28:55;;;;;;;26.02;3.53;;;4.80;99.90;;;;;;6189802;23;20016;-87
2022/01/28 01:31:21;;;;;;;22.63;3.67;;;4.80;99.90;;;;;;6189901;22;20548;-87
2022/01/28 01:36:15;;;;;;;33.00;5.82;;;4.90;99.90;;;;;;6214212;23;20020;-87
2022/01/28 01:38:42;;;;;;;25.93;3.80;;;4.90;99.90;;;;;;6214207;22;20017;-85
2022/01/28 01:41:13;;;;;;;;;;;4.90;99.90;;;;;;6188822;22;20020;-86
2022/01/28 01:44:03;;;;;;;25.33;3.70;;;5.00;99.90;;;;;;6189713;23;19922;-85
2022/01/28 01:46:42;;;;;;;29.58;4.68;;;5.00;99.90;;;;;;6189000;23;20461;-85
2022/01/28 01:52:05;;;;;;;28.00;4.70;;;5.00;99.90;;;;;;6213604;23;20024;-85
2022/01/28 01:54:34;;;;;;;27.38;3.90;;;5.00;99.90;;;;;;6214411;23;20424;-85
2022/01/28 01:57:01;;;;;;;25.02;4.28;;;5.10;99.90;;;;;;6214310;23;20024;-86
2022/01/28 01:59:27;;;;;;;27.63;4.25;;;5.10;99.90;;;;;;6213002;23;20016;-87
2022/01/28 02:07:04;;;;;;;26.40;4.75;;;5.30;99.90;;;;;;6271107;22;20023;-86
2022/01/28 02:09:30;;;;;;;;;;;5.30;99.90;;;;;;6244522;22;20095;-86
2022/01/28 02:11:56;;;;;;;31.52;4.05;;;5.30;99.90;;;;;;6244051;22;19947;-86
2022/01/28 02:14:22;;;;;;;31.13;4.83;;;5.30;99.90;;;;;;6218840;22;20016;-86
2022/01/28 02:16:47;;;;;;;23.53;4.33;;;5.40;99.90;;;;;;6244110;22;20068;-86
2022/01/28 02:19:13;;;;;;;26.17;4.23;;;5.40;99.90;;;;;;6244398;22;20234;-86
2022/01/28 02:50:09;;;;;;;28.55;4.45;;;5.50;99.90;;;;;;6208462;22;20354;-85
2022/01/28 02:52:42;;;;;;;24.27;4.22;;;5.50;99.90;;;;;;6347158;22;20085;-86
2022/01/28 02:55:11;;;;;;;27.88;4.45;;;5.50;99.90;;;;;;6373194;22;20009;-85
2022/01/28 02:57:41;;;;;;;27.35;4.57;;;5.50;99.90;;;;;;6347400;22;20014;-86
2022/01/28 03:00:07;;;;;;;23.33;4.15;;;5.50;99.90;;;;;;6401693;22;20014;-86
2022/01/28 03:02:33;;;;;;;30.33;5.18;;;5.50;99.90;;;;;;6373466;22;20018;-86
2022/01/28 03:05:31;;;;;;;32.57;4.60;;;5.60;99.90;;;;;;6373283;22;20076;-86
2022/01/28 03:08:59;;;;;;;24.45;4.63;;;5.60;99.90;;;;;;6347749;22;20092;-87
2022/01/28 03:14:36;;;;;;;27.17;4.05;;;5.70;99.90;;;;;;6373756;22;20053;-86
2022/01/28 03:17:15;;;;;;;27.35;4.70;;;5.70;99.90;;;;;;6348706;22;20486;-86
2022/01/28 03:19:45;;;;;;;29.33;5.00;;;5.70;99.90;;;;;;6347748;22;20016;-85
2022/01/28 03:22:11;;;;;;;30.27;5.68;;;5.70;99.90;;;;;;6349018;22;20018;-87
2022/01/28 03:24:58;;;;;;;25.27;4.63;;;5.70;99.90;;;;;;6376244;22;20013;-88
2022/01/28 03:27:45;;;;;;;25.45;4.15;;;5.70;99.90;;;;;;6375132;22;20014;-87
2022/01/28 03:30:09;;;;;;;22.30;3.65;;;5.70;99.90;;;;;;6375232;22;20010;-87
2022/01/28 03:32:35;;;;;;;20.65;3.78;;;5.70;99.90;;;;;;6348149;22;20020;-88
2022/01/28 03:35:03;;;;;;;19.73;3.00;;;5.70;99.90;;;;;;6347739;22;20409;-88
2022/01/28 03:37:28;;;;;;;20.15;3.50;;;5.70;99.90;;;;;;6348857;22;20347;-86
2022/01/28 03:39:54;;;;;;;19.50;3.70;;;5.70;99.90;;;;;;6348724;22;20014;-85
2022/01/28 03:42:20;;;;;;;24.03;3.53;;;5.70;99.90;;;;;;6375054;22;20053;-85
2022/01/28 03:44:45;;;;;;;21.50;3.50;;;5.60;99.90;;;;;;6374510;22;20052;-86
2022/01/28 03:47:11;;;;;;;17.57;3.17;;;5.70;99.90;;;;;;6348774;22;20149;-87
2022/01/28 03:49:37;;;;;;;20.90;3.30;;;5.70;99.90;;;;;;6348931;22;20022;-87
2022/01/28 03:52:03;;;;;;;20.67;3.47;;;5.70;99.90;;;;;;6375124;22;20013;-87
2022/01/28 03:54:28;;;;;;;28.67;4.40;;;5.70;99.90;;;;;;6375198;22;20014;-86
2022/01/28 03:56:55;;;;;;;20.13;4.00;;;5.70;99.90;;;;;;6374911;22;20256;-87
2022/01/28 03:59:21;;;;;;;;;;;5.70;99.90;;;;;;6375794;22;20021;-87
2022/01/28 04:01:49;;;;;;;24.48;4.13;;;5.60;99.90;;;;;;6349108;22;19914;-88
2022/01/28 04:05:40;;;;;;;18.65;4.07;;;5.70;99.90;;;;;;6348542;22;20025;-87
2022/01/28 04:12:40;;;;;;;22.13;4.15;;;5.70;99.90;;;;;;6403025;22;20323;-86
2022/01/28 04:17:52;;;;;;;19.15;3.45;;;5.70;99.90;;;;;;6374948;22;20014;-86
2022/01/28 04:20:18;;;;;;;25.13;3.42;;;5.70;99.90;;;;;;6402955;22;20035;-86
2022/01/28 04:22:44;;;;;;;24.05;4.07;;;5.70;99.90;;;;;;6374750;22;20092;-86
2022/01/28 04:25:10;;;;;;;22.60;4.10;;;5.70;99.90;;;;;;6348145;22;20059;-86
2022/01/28 04:27:36;;;;;;;26.17;4.40;;;5.70;99.90;;;;;;6374896;22;20010;-87
2022/01/28 04:30:03;;;;;;;24.77;3.53;;;5.70;99.90;;;;;;6403041;22;20244;-87
2022/01/28 04:32:30;;;;;;;23.75;4.20;;;5.70;99.90;;;;;;6348195;22;20016;-87
2022/01/28 04:34:58;;;;;;;;;;;5.70;99.90;;;;;;6401326;22;20014;-87
2022/01/28 04:39:58;;;;;;;26.65;3.80;;;5.80;99.90;;;;;;6374395;22;20021;-86
2022/01/28 04:50:33;;;;;;;25.45;4.20;;;5.70;99.90;;;;;;6374395;22;20022;-87
2022/01/28 05:05:51;;;;;;;27.27;4.85;;;5.70;99.90;;;;;;6402796;22;20459;-87
2022/01/28 05:25:11;;;;;;;26.65;3.80;;;5.30;99.90;;;;;;6402041;22;20026;-86
2022/01/28 05:27:10;;;;;;;23.77;4.25;;;5.40;99.90;;;;;;6367872;22;20082;-86
2022/01/28 05:29:36;;;;;;;24.92;3.83;;;5.40;99.90;;;;;;6402243;22;20477;-86
2022/01/28 05:32:02;;;;;;;27.90;3.83;;;5.40;99.90;;;;;;6374381;22;20070;-87
2022/01/28 05:34:28;;;;;;;26.98;3.20;;;5.40;99.90;;;;;;6401895;22;20014;-87
2022/01/28 05:36:55;;;;;;;18.30;3.63;;;5.50;99.90;;;;;;6401151;22;20021;-87
2022/01/28 05:39:21;;;;;;;26.98;5.07;;;5.50;99.90;;;;;;6374001;22;20320;-87
2022/01/28 05:41:47;;;;;;;21.93;3.57;;;5.50;99.90;;;;;;6402347;22;20016;-86
2022/01/28 05:44:22;;;;;;;34.50;4.43;;;5.50;99.90;;;;;;6347807;22;20252;-88
2022/01/28 05:46:49;;;;;;;27.98;4.13;;;5.50;99.90;;;;;;6374294;22;20018;-89
2022/01/28 05:49:16;;;;;;;22.38;3.03;;;5.50;99.90;;;;;;6402432;22;20338;-86
2022/01/28 05:51:43;;;;;;;25.33;4.15;;;5.50;99.90;;;;;;6373878;22;20432;-86
2022/01/28 05:54:09;;;;;;;22.75;3.83;;;5.50;99.90;;;;;;6372912;22;20014;-87
2022/01/28 05:56:35;;;;;;;22.42;3.22;;;5.60;99.90;;;;;;6373081;22;20018;-87
2022/01/28 05:59:25;;;;;;;22.03;3.47;;;5.60;99.90;;;;;;6402349;22;20090;-87
2022/01/28 06:02:16;;;;;;;22.83;4.07;;;5.60;99.90;;;;;;6348135;22;20074;-90
2022/01/28 06:04:43;;;;;;;25.27;3.55;;;5.60;99.90;;;;;;6347099;22;20018;-91
2022/01/28 06:07:09;;;;;;;30.45;4.72;;;5.60;99.90;;;;;;6348756;22;20014;-90
2022/01/28 06:09:34;;;;;;;26.13;4.77;;;5.70;99.90;;;;;;6348521;22;20071;-91
2022/01/28 06:12:00;;;;;;;29.27;4.07;;;5.70;99.90;;;;;;6348546;22;20342;-92
2022/01/28 06:14:26;;;;;;;26.93;4.17;;;5.60;99.90;;;;;;6347836;22;20438;-90
2022/01/28 06:16:51;;;;;;;25.53;4.27;;;5.60;99.90;;;;;;6348084;22;20088;-88
2022/01/28 06:24:36;;;;;;;23.83;3.90;;;5.50;99.90;;;;;;6401703;22;20021;-90
2022/01/28 06:27:02;;;;;;;28.47;4.13;;;5.40;99.90;;;;;;6348252;22;20040;-87
2022/01/28 06:29:28;;;;;;;23.07;3.83;;;5.30;99.90;;;;;;6347424;22;20065;-92
2022/01/28 06:31:54;;;;;;;20.57;3.73;;;5.30;99.90;;;;;;6374954;22;20049;-88
2022/01/28 06:34:19;;;;;;;25.27;4.30;;;5.30;99.90;;;;;;6348405;22;20014;-90
2022/01/28 06:36:45;;;;;;;22.20;3.67;;;5.20;99.90;;;;;;6348349;22;20010;-90
2022/01/28 06:39:11;;;;;;;24.03;3.60;;;5.20;99.90;;;;;;6348306;22;20373;-90
2022/01/28 06:41:36;;;;;;;23.93;3.70;;;5.20;99.90;;;;;;6348443;22;20014;-90
2022/01/28 06:44:03;;;;;;;22.87;4.73;;;5.20;99.90;;;;;;6348831;22;20071;-90
2022/01/28 06:46:29;;;;;;;18.27;3.33;;;5.10;99.90;;;;;;6348177;22;20354;-89
2022/01/28 07:19:59;;;;;;;21.95;4.68;;;5.10;99.90;;;;;;6406467;22;20018;-86
2022/01/28 07:22:25;;;;;;;22.63;3.27;;;5.10;99.90;;;;;;6377461;22;20040;-87
2022/01/28 07:24:50;;;;;;;27.27;3.53;;;5.10;99.90;;;;;;6350395;22;20093;-87
2022/01/28 07:27:19;;;;;;;23.50;3.83;;;5.10;99.90;;;;;;6378758;22;20089;-85
2022/01/28 07:29:48;;;;;;;26.98;3.75;;;5.10;99.90;;;;;;6409737;22;20047;-86
2022/01/28 07:35:10;;;;;;;27.70;4.45;;;5.10;99.90;;;;;;6280899;22;20020;-90
2022/01/28 07:37:37;;;;;;;29.15;4.55;;;5.10;99.90;;;;;;6361790;22;20027;-95
2022/01/28 07:40:03;;;;;;;;;;;5.20;99.90;;;;;;6229167;22;20016;-93
2022/01/28 07:42:41;;;;;;;25.08;3.70;;;5.20;99.90;;;;;;6228478;22;19915;-92
2022/01/28 07:45:14;;;;;;;29.80;3.72;;;5.20;99.90;;;;;;6228666;22;20118;-89
2022/01/28 07:53:56;;;;;;;25.67;3.92;;;5.20;99.90;;;;;;6410176;22;20028;-94
2022/01/28 07:56:24;;;;;;;24.03;3.80;;;5.20;99.90;;;;;;6357236;22;20097;-95
2022/01/28 07:58:52;;;;;;;32.00;4.60;;;5.20;99.90;;;;;;6356356;22;20121;-91
2022/01/28 08:01:18;;;;;;;31.38;5.38;;;5.10;99.90;;;;;;6354470;22;20021;-90
2022/01/28 08:03:44;;;;;;;30.30;5.33;;;5.00;99.90;;;;;;6355750;22;20010;-89
2022/01/28 08:06:41;;;;;;;28.33;4.23;;;4.90;99.90;;;;;;6354812;22;20018;-92
2022/01/28 08:09:10;;;;;;;32.22;4.53;;;4.90;99.90;;;;;;6354039;22;20018;-92
2022/01/28 08:11:35;;;;;;;26.58;4.10;;;4.90;99.90;;;;;;6353272;22;20021;-89
2022/01/28 08:14:02;;;;;;;28.07;4.00;;;4.90;99.90;;;;;;6353915;22;20499;-95
2022/01/28 08:16:52;;;;;;;25.80;4.45;;;4.90;99.90;;;;;;6354392;22;20014;-92
2022/01/28 08:23:30;;;;;;;;;;;4.90;99.90;;;;;;6407232;22;20346;-94
2022/01/28 08:25:56;;;;;;;27.20;3.63;;;5.00;99.90;;;;;;6348358;22;19921;-94
2022/01/28 08:28:25;;;;;;;23.67;3.87;;;5.10;99.90;;;;;;6350626;22;20014;-94
2022/01/28 08:30:51;;;;;;;22.45;4.38;;;5.10;99.90;;;;;;6350476;22;20016;-94
2022/01/28 08:33:16;;;;;;;32.47;4.40;;;5.10;99.90;;;;;;6350640;22;20018;-93
2022/01/28 09:00:12;;;;;;;20.60;3.42;;;5.30;99.90;;;;;;6340152;22;20041;-94
2022/01/28 09:02:39;;;;;;;22.85;3.30;;;5.30;99.90;;;;;;6349224;22;20458;-89
2022/01/28 09:05:05;;;;;;;26.30;3.38;;;5.30;99.90;;;;;;6349384;22;20088;-94
2022/01/28 09:07:31;;;;;;;23.63;4.33;;;5.30;99.90;;;;;;6375379;22;20066;-95
2022/01/28 09:10:06;;;;;;;22.33;3.73;;;5.40;99.90;;;;;;6348591;22;20021;-92
2022/01/28 09:12:39;;;;;;;28.33;3.78;;;5.40;99.90;;;;;;6348923;22;20014;-93
2022/01/28 09:15:08;;;;;;;25.85;3.80;;;5.40;99.90;;;;;;6348312;22;20378;-92
2022/01/28 09:17:34;;;;;;;26.85;4.28;;;5.40;99.90;;;;;;6349344;22;20018;-91
2022/01/28 09:20:01;;;;;;;28.77;4.13;;;5.50;99.90;;;;;;6348932;22;20013;-93
2022/01/28 09:22:27;;;;;;;26.48;3.30;;;5.50;99.90;;;;;;6348898;22;20255;-94
2022/01/28 09:24:53;;;;;;;21.30;3.70;;;5.50;99.90;;;;;;6349074;22;20018;-96
2022/01/28 09:27:19;;;;;;;22.93;3.50;;;5.60;99.90;;;;;;6375299;22;20092;-93
2022/01/28 09:29:45;;;;;;;21.57;3.03;;;5.60;99.90;;;;;;6348442;22;20014;-92
2022/01/28 09:32:10;;;;;;;18.73;3.00;;;5.70;99.90;;;;;;6349251;22;20046;-93
2022/01/28 09:34:36;;;;;;;25.83;4.30;;;5.70;99.90;;;;;;6348903;22;20017;-91
2022/01/28 09:37:02;;;;;;;26.03;3.97;;;5.70;99.90;;;;;;6348549;22;20010;-94
2022/01/28 09:39:30;;;;;;;21.92;3.05;;;5.80;99.90;;;;;;6375169;22;20018;-95
2022/01/28 09:42:02;;;;;;;29.35;4.38;;;5.90;99.90;;;;;;6349035;22;20480;-94
2022/01/28 09:44:33;;;;;;;26.17;3.05;;;5.90;99.90;;;;;;6348667;22;20380;-94
2022/01/28 09:46:59;;;;;;;21.48;3.80;;;6.00;99.90;;;;;;6348763;22;20058;-94
2022/01/28 09:49:26;;;;;;;27.40;3.58;;;6.10;99.90;;;;;;6349044;22;20013;-95
2022/01/28 09:51:52;;;;;;;26.40;3.78;;;6.20;99.90;;;;;;6348796;22;20442;-93
2022/01/28 09:54:18;;;;;;;33.90;4.53;;;6.20;99.90;;;;;;6347756;22;20021;-92
2022/01/28 09:56:44;;;;;;;27.07;4.20;;;6.20;99.90;;;;;;6348201;22;20017;-93
2022/01/28 09:59:09;;;;;;;20.77;3.63;;;6.20;99.90;;;;;;6348301;22;20017;-95
2022/01/28 10:01:48;;;;;;;24.53;3.63;;;6.20;99.90;;;;;;6349007;22;20105;-94
2022/01/28 10:04:17;;;;;;;25.88;3.55;;;6.20;99.90;;;;;;6347104;22;20375;-90
2022/01/28 10:06:44;;;;;;;29.77;4.47;;;6.20;99.90;;;;;;6348105;22;20387;-94
2022/01/28 10:09:11;;;;;;;19.42;3.83;;;6.30;99.90;;;;;;6348718;22;20315;-93
2022/01/28 10:11:38;;;;;;;29.13;4.00;;;6.30;99.90;;;;;;6348497;22;20017;-94
2022/01/28 10:14:11;;;;;;;17.23;3.65;;;6.30;99.90;;;;;;6347407;22;20009;-93
2022/01/28 10:16:37;;;;;;;26.13;3.63;;;6.30;99.90;;;;;;6374670;22;20025;-94
2022/01/28 10:19:06;;;;;;;25.90;3.90;;;6.30;99.90;;;;;;6348643;22;20013;-93
2022/01/28 10:21:37;;;;;;;25.88;4.55;;;6.40;99.90;;;;;;6374957;22;20046;-94
2022/01/28 10:24:06;;;;;;;25.63;3.88;;;6.40;99.90;;;;;;6348251;22;20025;-95
2022/01/28 10:26:35;;;;;;;29.20;4.30;;;6.40;99.90;;;;;;6348666;22;20082;-93
2022/01/28 10:29:04;;;;;;;28.10;4.10;;;6.40;99.90;;;;;;6348402;22;20014;-92
2022/01/28 10:31:40;;;;;;;28.75;3.90;;;6.50;99.90;;;;;;6348527;22;20014;-93
2022/01/28 10:34:17;;;;;;;25.23;3.55;;;6.50;99.90;;;;;;6374405;22;20013;-93
2022/01/28 10:36:46;;;;;;;35.22;4.45;;;6.50;99.90;;;;;;6348063;22;20021;-95
2022/01/28 10:39:17;;;;;;;20.92;3.67;;;6.50;99.90;;;;;;6348661;22;20049;-91
2022/01/28 10:41:55;;;;;;;25.30;3.80;;;6.60;99.90;;;;;;6348042;22;20391;-94
2022/01/28 10:44:21;;;;;;;22.42;3.60;;;6.60;99.90;;;;;;6348175;22;20018;-93
2022/01/28 10:46:57;;;;;;;22.83;3.75;;;6.60;99.90;;;;;;6348317;22;20368;-94
2022/01/28 10:49:40;;;;;;;38.05;4.05;;;6.60;99.90;;;;;;6348462;22;20021;-94
2022/01/28 10:52:08;;;;;;;31.00;3.90;;;6.60;99.90;;;;;;6348036;22;20053;-93
2022/01/28 10:54:36;;;;;;;25.77;3.83;;;6.60;99.90;;;;;;6374445;22;20466;-93
2022/01/28 10:57:03;;;;;;;27.33;3.97;;;6.60;99.90;;;;;;6348336;22;20014;-91
2022/01/28 10:59:42;;;;;;;26.92;4.07;;;6.70;99.90;;;;;;6312924;22;20314;-94
2022/01/28 11:02:08;;;;;;;29.17;4.82;;;6.70;99.90;;;;;;6214729;23;20024;-92
2022/01/28 11:04:34;;;;;;;26.87;3.93;;;6.70;99.90;;;;;;6214944;23;20081;-94
2022/01/28 11:07:01;;;;;;;26.42;4.22;;;6.70;99.90;;;;;;6214922;23;20065;-92
2022/01/28 11:09:28;;;;;;;26.45;3.45;;;6.70;99.90;;;;;;6214911;23;20348;-94
2022/01/28 11:11:54;;;;;;;33.85;4.30;;;6.80;99.90;;;;;;6215058;23;20016;-94
2022/01/28 11:14:21;;;;;;;24.50;3.42;;;6.80;99.90;;;;;;6215031;23;20016;-94
2022/01/28 11:16:48;;;;;;;;;;;6.80;99.90;;;;;;6215329;23;20021;-92
2022/01/28 11:19:17;;;;;;;20.70;3.70;;;6.80;99.90;;;;;;6215072;23;19916;-94
2022/01/28 11:21:45;;;;;;;20.42;3.58;;;6.80;99.90;;;;;;6214802;23;20008;-93
2022/01/28 11:24:43;;;;;;;25.13;3.72;;;6.70;99.90;;;;;;6215144;23;20016;-94
2022/01/28 11:27:27;;;;;;;30.60;4.13;;;6.70;99.90;;;;;;6214874;23;20069;-92
2022/01/28 11:30:28;;;;;;;24.58;3.80;;;6.70;99.90;;;;;;6212945;23;20016;-95
2022/01/28 11:33:03;;;;;;;24.25;3.63;;;6.70;99.90;;;;;;6214048;23;20048;-93
2022/01/28 11:35:40;;;;;;;22.80;3.75;;;6.70;99.90;;;;;;6215565;23;20062;-93
2022/01/28 11:38:43;;;;;;;36.30;5.28;;;6.60;99.90;;;;;;6216257;23;20412;-94
2022/01/28 11:41:21;;;;;;;19.67;3.55;;;6.60;99.90;;;;;;6216376;23;20020;-92
2022/01/28 11:43:55;;;;;;;24.67;3.75;;;6.60;99.90;;;;;;6215381;23;20516;-93
2022/01/28 11:46:27;;;;;;;23.13;3.33;;;6.60;99.90;;;;;;6241370;23;20063;-92
2022/01/28 11:48:53;;;;;;;23.48;3.08;;;6.60;99.90;;;;;;6216274;23;20012;-92
2022/01/28 11:51:23;;;;;;;23.40;3.57;;;6.60;99.90;;;;;;6216316;23;20076;-94
2022/01/28 11:54:03;;;;;;;20.23;3.20;;;6.70;99.90;;;;;;6216176;23;20016;-93
2022/01/28 11:56:29;;;;;;;28.38;3.00;;;6.80;99.90;;;;;;6215817;23;20020;-94
2022/01/28 11:59:07;;;;;;;;;;;6.90;99.90;;;;;;6215799;23;20012;-91
2022/01/28 12:01:36;;;;;;;27.67;3.92;;;6.90;99.90;;;;;;6288231;22;20233;-93
2022/01/28 12:04:27;;;;;;;20.35;4.07;;;6.90;99.90;;;;;;6291800;22;20346;-90
2022/01/28 12:06:59;;;;;;;21.75;4.07;;;7.00;99.90;;;;;;6291225;22;20072;-90
2022/01/28 12:09:33;;;;;;;18.73;3.08;;;7.00;99.90;;;;;;6291253;22;20019;-93
2022/01/28 12:12:00;;;;;;;16.88;2.70;;;7.10;99.90;;;;;;6291715;22;20034;-93
2022/01/28 12:15:08;;;;;;;22.52;2.85;;;7.00;99.90;;;;;;6291865;22;20058;-94
2022/01/28 12:17:35;;;;;;;20.03;3.57;;;7.00;99.90;;;;;;6291647;22;20083;-93
2022/01/28 12:20:19;;;;;;;25.52;3.85;;;7.00;99.90;;;;;;6318527;22;20077;-91
2022/01/28 12:23:01;;;;;;;24.90;4.18;;;7.00;99.90;;;;;;6292052;22;20017;-95
2022/01/28 12:25:36;;;;;;;30.70;4.05;;;7.10;99.90;;;;;;6291797;22;20021;-94
2022/01/28 12:28:17;;;;;;;26.05;3.92;;;7.10;99.90;;;;;;6291668;22;20095;-94
2022/01/28 12:30:45;;;;;;;21.88;3.40;;;7.10;99.90;;;;;;6291526;22;20017;-95
2022/01/28 12:33:11;;;;;;;21.90;3.17;;;7.10;99.90;;;;;;6289732;22;20453;-93
2022/01/28 12:35:38;;;;;;;25.25;3.28;;;7.00;99.90;;;;;;6291359;22;20027;-93
2022/01/28 12:38:05;;;;;;;22.50;3.33;;;7.00;99.90;;;;;;6290963;22;20182;-93
2022/01/28 12:40:40;;;;;;;21.75;3.13;;;7.10;99.90;;;;;;6292181;22;20012;-91
2022/01/28 12:43:07;;;;;;;23.42;3.22;;;7.10;99.90;;;;;;6290793;22;20017;-92
2022/01/28 12:45:34;;;;;;;19.45;3.10;;;7.20;99.90;;;;;;6292324;22;20017;-94
2022/01/28 12:48:00;;;;;;;;;;;7.30;99.90;;;;;;6292295;22;20021;-93
2022/01/28 12:50:28;;;;;;;28.70;3.90;;;7.40;99.90;;;;;;6291589;22;19954;-96
2022/01/28 12:52:54;;;;;;;29.27;3.45;;;7.50;99.90;;;;;;6317363;22;20016;-93
2022/01/28 12:55:20;;;;;;;26.00;3.75;;;7.40;99.90;;;;;;6291559;22;20112;-89
2022/01/28 12:57:47;;;;;;;21.63;2.90;;;7.30;99.90;;;;;;6291857;22;20442;-93
2022/01/28 13:00:14;;;;;;;14.63;2.28;;;7.30;99.90;;;;;;6290861;22;20017;-92
2022/01/28 13:02:41;;;;;;;23.05;3.55;;;7.20;99.90;;;;;;6291358;22;20052;-93
2022/01/28 13:10:23;;;;;;;19.38;2.67;;;7.20;99.90;;;;;;6317894;22;20100;-90
2022/01/28 13:12:49;;;;;;;16.13;2.60;;;7.20;99.90;;;;;;6290876;22;20013;-91
2022/01/28 13:15:16;;;;;;;23.73;3.15;;;7.20;99.90;;;;;;6291272;22;20023;-91
2022/01/28 13:17:51;;;;;;;;;;;7.10;99.90;;;;;;6291818;22;20055;-93
2022/01/28 13:20:17;;;;;;;20.52;2.67;;;7.00;99.90;;;;;;6291093;22;19923;-94
2022/01/28 13:22:49;;;;;;;15.45;2.58;;;6.90;99.90;;;;;;6290857;22;20020;-95
2022/01/28 13:25:24;;;;;;;26.63;3.80;;;6.90;99.90;;;;;;6291340;22;20468;-94
2022/01/28 13:27:57;;;;;;;17.80;3.13;;;6.90;99.90;;;;;;6290900;22;20020;-93
2022/01/28 13:30:23;;;;;;;18.50;2.83;;;6.90;99.90;;;;;;6290956;22;20023;-92
2022/01/28 13:32:51;;;;;;;14.23;2.20;;;6.80;99.90;;;;;;6291107;22;20020;-90
2022/01/28 13:35:20;;;;;;;18.77;2.83;;;6.80;99.90;;;;;;6290653;22;20460;-92
2022/01/28 13:37:48;;;;;;;24.83;2.97;;;6.80;99.90;;;;;;6290993;22;20023;-95
2022/01/28 13:40:20;;;;;;;20.63;3.03;;;6.80;99.90;;;;;;6316629;22;20040;-92
2022/01/28 13:43:06;;;;;;;21.10;2.72;;;6.80;99.90;;;;;;6290052;22;20088;-92
2022/01/28 13:45:37;;;;;;;22.63;3.08;;;6.80;99.90;;;;;;6290855;22;20013;-94
2022/01/28 13:48:19;;;;;;;16.77;2.58;;;6.80;99.90;;;;;;6291316;22;20017;-94
2022/01/28 13:50:50;;;;;;;20.75;2.60;;;6.80;99.90;;;;;;6291113;22;20047;-92
2022/01/28 13:53:33;;;;;;;19.55;3.05;;;6.90;99.90;;;;;;6290448;22;20016;-90
2022/01/28 13:56:02;;;;;;;17.40;3.08;;;6.90;99.90;;;;;;6290953;22;20056;-92
2022/01/28 13:58:30;;;;;;;17.23;2.78;;;7.00;99.90;;;;;;6290918;22;20020;-95
2022/01/28 14:00:56;;;;;;;19.48;2.58;;;7.00;99.90;;;;;;6290946;22;20072;-95
2022/01/28 14:03:27;;;;;;;20.20;3.70;;;7.00;99.90;;;;;;6293424;22;20069;-89
2022/01/28 14:06:00;;;;;;;24.02;3.05;;;7.10;99.90;;;;;;6296229;22;20019;-96
2022/01/28 14:08:39;;;;;;;22.20;2.83;;;7.10;99.90;;;;;;6296990;22;20017;-91
2022/01/28 14:11:38;;;;;;;19.20;2.80;;;7.00;99.90;;;;;;6321100;22;20020;-90
2022/01/28 14:14:14;;;;;;;18.77;2.80;;;7.00;99.90;;;;;;6219999;22;20027;-94
2022/01/28 14:16:41;;;;;;;14.43;2.17;;;7.00;99.90;;;;;;6294685;22;20016;-91
2022/01/28 14:19:07;;;;;;;25.13;3.30;;;7.00;99.90;;;;;;6295802;22;20020;-91
2022/01/28 14:21:32;;;;;;;16.73;2.40;;;7.00;99.90;;;;;;6297890;22;20017;-94
2022/01/28 14:23:58;;;;;;;24.13;2.70;;;7.00;99.90;;;;;;6298049;22;20346;-96
2022/01/28 14:26:29;;;;;;;18.87;2.97;;;7.00;99.90;;;;;;6304923;22;20027;-92
2022/01/28 14:31:52;;;;;;;17.10;3.08;;;6.90;99.90;;;;;;6321718;22;20096;-95
2022/01/28 14:34:19;;;;;;;19.20;3.58;;;6.90;99.90;;;;;;6295641;22;20055;-94
2022/01/28 14:36:56;;;;;;;24.58;3.17;;;6.90;99.90;;;;;;6313391;22;20017;-95
2022/01/28 14:39:23;;;;;;;21.33;2.80;;;6.90;99.90;;;;;;6295855;22;20016;-95
2022/01/28 14:41:51;;;;;;;17.83;2.50;;;6.90;99.90;;;;;;6294804;22;20045;-95
2022/01/28 14:44:17;;;;;;;17.60;2.63;;;6.80;99.90;;;;;;6296654;22;20017;-94
2022/01/28 14:46:48;;;;;;;17.38;3.40;;;6.80;99.90;;;;;;6326483;22;20017;-93
2022/01/28 14:49:14;;;;;;;16.95;2.92;;;6.80;99.90;;;;;;6296504;22;20023;-92
2022/01/28 14:51:41;;;;;;;15.23;2.67;;;6.80;99.90;;;;;;6290813;22;20017;-92
2022/01/28 14:54:07;;;;;;;18.67;2.88;;;6.80;99.90;;;;;;6290763;22;20046;-92
2022/01/28 14:56:55;;;;;;;16.27;2.60;;;6.80;99.90;;;;;;6291230;22;20020;-92
2022/01/28 14:59:21;;;;;;;14.32;2.55;;;6.80;99.90;;;;;;6303289;22;20630;-92
2022/01/28 15:01:47;;;;;;;19.48;2.63;;;6.80;99.90;;;;;;6349007;22;20017;-92
2022/01/28 15:04:13;;;;;;;19.67;2.92;;;6.70;99.90;;;;;;6348877;22;20014;-92
2022/01/28 15:10:47;;;;;;;;;;;6.80;99.90;;;;;;6404991;22;20009;-94
2022/01/28 15:13:13;;;;;;;13.10;2.30;;;6.80;99.90;;;;;;6350426;22;19952;-91
2022/01/28 15:15:40;;;;;;;20.67;2.63;;;6.80;99.90;;;;;;6350550;22;20013;-92
2022/01/28 15:18:05;;;;;;;21.58;3.10;;;6.70;99.90;;;;;;6350599;22;20511;-92
2022/01/28 15:20:33;;;;;;;21.23;3.00;;;6.70;99.90;;;;;;6350522;22;20045;-92
2022/01/28 15:22:58;;;;;;;18.20;3.35;;;6.70;99.90;;;;;;6350402;22;20025;-93
2022/01/28 15:25:49;;;;;;;15.30;2.93;;;6.70;99.90;;;;;;6351080;22;20331;-91
2022/01/28 15:28:18;;;;;;;14.45;2.40;;;6.60;99.90;;;;;;6350088;22;20010;-91
2022/01/28 15:37:12;;;;;;;20.25;2.00;;;6.60;99.90;;;;;;6384461;22;20022;-85
2022/01/28 15:42:35;;;;;;;15.88;2.05;;;6.60;99.90;;;;;;6404382;22;20030;-85
2022/01/28 15:45:00;;;;;;;17.83;2.23;;;6.60;99.90;;;;;;6378761;22;20075;-90
2022/01/28 15:47:26;;;;;;;16.73;2.07;;;6.60;99.90;;;;;;6351608;22;20040;-85
2022/01/28 15:49:52;;;;;;;16.23;2.40;;;6.60;99.90;;;;;;6351028;22;20025;-84
2022/01/28 15:52:17;;;;;;;13.50;2.13;;;6.60;99.90;;;;;;6405671;22;20025;-87
2022/01/28 15:54:44;;;;;;;18.10;2.43;;;6.50;99.90;;;;;;6351296;22;20021;-87
2022/01/28 15:59:45;;;;;;;15.55;2.40;;;6.50;99.90;;;;;;6424435;22;20017;-90
2022/01/28 16:02:11;;;;;;;16.30;2.42;;;6.50;99.90;;;;;;6353851;22;20026;-89
2022/01/28 16:04:43;;;;;;;19.37;2.27;;;6.50;99.90;;;;;;6381233;22;20010;-92
2022/01/28 16:07:31;;;;;;;16.75;2.42;;;6.50;99.90;;;;;;6419199;22;20013;-96
2022/01/28 16:10:07;;;;;;;20.05;2.13;;;6.50;99.90;;;;;;6353696;22;23838;-93
2022/01/28 16:15:18;;;;;;;20.10;3.05;;;6.40;99.90;;;;;;6383718;22;20474;-95
2022/01/28 16:17:44;;;;;;;13.90;2.85;;;6.40;99.90;;;;;;6356582;22;20017;-96
2022/01/28 16:20:10;;;;;;;14.63;2.73;;;6.40;99.90;;;;;;6356270;22;20094;-89
2022/01/28 16:22:35;;;;;;;20.40;2.90;;;6.40;99.90;;;;;;6380444;22;20019;-92
2022/01/28 16:25:01;;;;;;;24.27;5.53;;;6.40;99.90;;;;;;6375654;22;20070;-90
2022/01/28 16:27:26;;;;;;;16.73;3.33;;;6.40;99.90;;;;;;6349508;22;20010;-87
2022/01/28 16:29:53;;;;;;;20.60;3.03;;;6.40;99.90;;;;;;6403667;22;20070;-86
2022/01/28 16:32:21;;;;;;;11.77;2.60;;;6.40;99.90;;;;;;6375175;22;20435;-87
2022/01/28 16:34:48;;;;;;;22.33;3.38;;;6.40;99.90;;;;;;6348947;22;20096;-85
2022/01/28 16:37:15;;;;;;;17.88;2.65;;;6.30;99.90;;;;;;6374583;22;20022;-85
2022/01/28 16:39:43;;;;;;;;;;;6.30;99.90;;;;;;6375459;22;20338;-88
2022/01/28 16:42:11;;;;;;;21.13;2.40;;;6.30;99.90;;;;;;6374791;22;20276;-83
2022/01/28 16:44:45;;;;;;;18.38;2.35;;;6.30;99.90;;;;;;6348496;22;20454;-83
2022/01/28 16:47:12;;;;;;;18.98;3.65;;;6.30;99.90;;;;;;6374934;22;20100;-87
2022/01/28 16:49:40;;;;;;;21.55;6.03;;;6.30;99.90;;;;;;6375166;22;20451;-88
2022/01/28 16:52:06;;;;;;;21.75;6.55;;;6.30;99.90;;;;;;6374929;22;20088;-84
2022/01/28 16:54:33;;;;;;;17.92;7.53;;;6.30;99.90;;;;;;6402312;22;20010;-94
2022/01/28 16:56:59;;;;;;;20.48;4.40;;;6.30;99.90;;;;;;6402028;22;20037;-95
2022/01/28 16:59:24;;;;;;;20.60;4.00;;;6.30;99.90;;;;;;6374421;22;20450;-95
2022/01/28 17:01:50;;;;;;;16.80;3.83;;;6.20;99.90;;;;;;6375772;22;20060;-93